Latest Weather Observations for Shepparton

IDV60801

Issued at 4:35 pm EST Wednesday 20 August 2014 (issued every 30 minutes, with the page automatically refreshed every 10 minutes)

About weather observations | Map of weather stations | Latest weather observations for VIC | Other Formats
Station Details ID: 081125 Name: SHEPPARTON AIRPORT Lat: -36.43 Lon: 145.39 Height: 113.9 m
Data from the previous 72 hours. | See also: Recent months at Shepparton
Date/Time
EST
Temp
°C
App
Temp
°C
Dew
Point
Rel
Hum
%
Delta-T
°C
Wind Press
QNH
hPa
Press
MSL
hPa
Rain
since 9 am
mm
Dir
 
Spd
km/h
Gust
km/h
Spd
kts
Gust
kts
20/04:30pm 15.1 12.7 8.8 66 3.2 SE 11 13 6 7 1024.5 1024.7 0.0
20/04:00pm 15.1 12.5 7.9 62 3.6 ESE 11 15 6 8 1024.4 1024.6 0.0
20/03:30pm 14.4 13.5 7.7 64 3.3 SSE 2 9 1 5 1024.3 1024.5 0.0
20/03:00pm 14.4 11.7 7.5 63 3.4 ESE 11 15 6 8 1024.3 1024.5 0.0
20/02:30pm 15.4 13.7 7.7 60 3.9 SE 6 9 3 5 1024.2 1024.4 0.0
20/02:00pm 14.6 12.1 6.7 59 3.8 E 9 15 5 8 1024.4 1024.6 0.0
20/01:30pm 14.6 12.2 7.2 61 3.7 ESE 9 17 5 9 1024.5 1024.7 0.0
20/01:00pm 14.2 11.9 7.5 64 3.3 E 9 15 5 8 1024.8 1025.0 0.0
20/12:30pm 13.6 11.5 6.7 63 3.3 ESE 7 15 4 8 1025.2 1025.4 0.0
20/12:00pm 12.9 10.3 6.3 64 3.1 ESE 9 17 5 9 1025.5 1025.7 0.0
20/11:30am 12.4 9.7 5.8 64 3.1 E 9 15 5 8 1025.9 1026.1 0.0
20/11:00am 12.2 8.8 5.8 65 3.0 ESE 13 19 7 10 1026.0 1026.2 0.0
20/10:30am 11.7 8.8 6.6 71 2.4 ESE 11 19 6 10 1026.2 1026.4 0.0
20/10:00am 10.2 7.9 5.8 74 2.0 ESE 7 13 4 7 1026.1 1026.3 0.0
20/09:30am 9.2 6.5 5.4 77 1.7 SE 9 11 5 6 1026.0 1026.2 0.0
20/09:00am 8.2 4.9 4.8 79 1.5 SE 11 13 6 7 1025.8 1026.0 0.0
20/08:30am 7.1 3.8 4.4 83 1.2 SSE 11 13 6 7 1025.6 1025.8 0.0
20/08:00am 5.8 2.9 4.4 91 0.6 SSE 9 11 5 6 1025.3 1025.5 0.0
20/07:30am 3.2 0.9 2.6 96 0.2 S 4 7 2 4 1024.9 1025.1 0.0
20/07:00am 3.4 0.5 2.8 96 0.2 S 7 7 4 4 1024.5 1024.7 0.0
20/06:30am 2.9 -0.1 2.2 95 0.3 S 7 11 4 6 1024.1 1024.3 0.0
20/06:00am 3.6 0.3 2.6 93 0.4 S 9 13 5 7 1024.0 1024.2 0.0
20/05:30am 4.0 0.4 3.1 94 0.4 S 11 13 6 7 1023.7 1023.9 0.0
20/05:00am 4.0 0.8 2.8 92 0.5 S 9 11 5 6 1023.5 1023.7 0.0
20/04:30am 4.9 1.7 3.2 89 0.7 S 9 13 5 7 1023.4 1023.6 0.0
20/04:00am 5.1 1.2 3.4 89 0.7 S 13 17 7 9 1023.2 1023.4 0.0
20/03:30am 5.3 1.8 3.6 89 0.7 S 11 15 6 8 1023.1 1023.3 0.0
20/03:00am 5.5 2.0 3.7 88 0.8 S 11 15 6 8 1023.1 1023.3 0.0
20/02:30am 6.3 2.5 4.1 86 0.9 S 13 17 7 9 1023.2 1023.4 0.0
20/02:00am 6.6 2.5 4.4 86 0.9 S 15 20 8 11 1023.4 1023.6 0.0
20/01:30am 6.5 2.4 4.5 87 0.9 S 15 19 8 10 1023.3 1023.5 0.0
20/01:00am 6.8 2.8 5.0 88 0.8 S 15 19 8 10 1023.3 1023.5 0.0
20/12:30am 6.8 3.2 5.0 88 0.8 S 13 19 7 10 1023.3 1023.5 0.0
20/12:00am 7.2 3.7 5.3 88 0.8 S 13 17 7 9 1023.3 1023.5 0.0
 
Date/Time
EST
Temp
°C
App
Temp
°C
Dew
Point
Rel
Hum
%
Delta-T
°C
Wind Press
QNH
hPa
Press
MSL
hPa
Rain
since 9 am
mm
Dir
 
Spd
km/h
Gust
km/h
Spd
kts
Gust
kts
19/11:30pm 7.2 3.6 5.2 87 0.9 S 13 20 7 11 1023.3 1023.5 0.0
19/11:00pm 7.8 3.6 5.6 86 1.0 S 17 24 9 13 1023.1 1023.3 0.0
19/10:30pm 7.6 4.2 5.7 88 0.9 SSW 13 17 7 9 1023.2 1023.4 0.0
19/10:00pm 7.7 4.3 5.8 88 0.9 S 13 19 7 10 1023.1 1023.3 0.0
19/09:30pm 8.2 4.5 6.3 88 0.9 SSW 15 20 8 11 1023.1 1023.3 0.0
19/09:00pm 8.5 4.4 6.3 86 1.0 S 17 20 9 11 1023.0 1023.2 0.0
19/08:30pm 8.9 4.5 6.5 85 1.1 S 19 22 10 12 1023.0 1023.2 0.0
19/08:00pm 9.4 5.4 6.7 83 1.3 S 17 22 9 12 1022.8 1023.0 0.0
19/07:30pm 9.6 5.6 6.7 82 1.4 SSW 17 22 9 12 1022.7 1022.9 0.0
19/07:00pm 10.1 5.8 6.8 80 1.6 SSW 19 26 10 14 1022.5 1022.7 0.0
19/06:30pm 10.8 6.9 7.1 78 1.8 SSW 17 22 9 12 1022.0 1022.2 0.0
19/06:00pm 12.1 7.6 7.0 71 2.5 SSW 20 28 11 15 1021.6 1021.8 0.0
19/05:30pm 12.9 8.0 7.1 68 2.8 S 22 32 12 17 1021.3 1021.5 0.0
19/05:00pm 14.1 8.9 7.4 64 3.3 SSW 24 32 13 17 1021.1 1021.3 0.0
19/04:30pm 15.2 10.9 7.7 61 3.8 S 20 30 11 16 1020.9 1021.1 0.0
19/04:00pm 15.5 11.2 7.8 60 3.9 S 20 28 11 15 1020.7 1020.9 0.0
19/03:30pm 16.2 11.9 7.7 57 4.3 S 20 30 11 16 1020.7 1020.9 0.0
19/03:00pm 16.9 13.0 8.8 59 4.2 S 19 26 10 14 1020.7 1020.9 0.0
19/02:30pm 16.4 12.3 8.6 60 4.0 S 20 26 11 14 1020.7 1020.9 0.0
19/02:00pm 16.4 12.2 8.4 59 4.1 S 20 28 11 15 1020.6 1020.8 0.0
19/01:30pm 16.0 12.0 8.2 60 4.0 S 19 26 10 14 1020.8 1021.0 0.0
19/01:00pm 16.0 12.1 8.7 62 3.7 S 19 30 10 16 1020.9 1021.1 0.0
19/12:30pm 15.8 11.7 8.8 63 3.6 S 20 28 11 15 1021.1 1021.3 0.0
19/12:00pm 15.3 11.4 8.5 64 3.4 S 19 28 10 15 1021.5 1021.7 0.0
19/11:30am 14.9 10.3 8.2 64 3.4 S 22 30 12 16 1021.8 1022.0 0.0
19/11:00am 14.8 10.3 8.5 66 3.2 S 22 28 12 15 1021.8 1022.0 0.0
19/10:30am 14.1 9.6 8.5 69 2.8 S 22 30 12 16 1021.8 1022.0 0.0
19/10:00am 13.2 8.2 8.1 71 2.5 S 24 32 13 17 1021.8 1022.0 0.0
19/09:30am 12.5 7.8 7.6 72 2.4 S 22 32 12 17 1021.8 1022.0 0.0
19/09:00am 12.3 7.8 8.4 77 1.9 S 22 32 12 17 1021.7 1021.9 0.0
19/08:30am 11.0 6.3 7.9 81 1.5 S 22 32 12 17 1021.5 1021.7 0.0
19/08:00am 9.9 5.5 7.5 85 1.1 S 20 26 11 14 1021.2 1021.4 0.0
19/07:30am 9.4 5.0 7.3 87 1.0 S 20 28 11 15 1021.0 1021.2 0.0
19/07:00am 9.2 4.4 7.2 87 0.9 S 22 30 12 16 1020.6 1020.8 0.0
19/06:30am 9.3 4.1 7.3 87 1.0 S 24 30 13 16 1020.3 1020.4 0.0
19/06:00am 9.3 4.5 7.4 88 0.9 S 22 32 12 17 1020.0 1020.1 0.0
19/05:30am 9.4 5.0 7.3 87 1.0 S 20 28 11 15 1019.8 1019.9 0.0
19/05:00am 9.5 5.1 7.6 88 0.9 S 20 28 11 15 1019.6 1019.7 0.0
19/04:30am 9.6 5.3 7.7 88 0.9 S 20 30 11 16 1019.5 1019.6 0.0
19/04:00am 9.4 5.3 7.7 89 0.8 S 19 26 10 14 1019.4 1019.5 0.0
19/03:30am 9.2 5.0 7.6 90 0.8 S 19 26 10 14 1019.4 1019.5 0.0
19/03:00am 9.2 4.8 7.5 89 0.8 S 20 26 11 14 1019.4 1019.5 0.0
19/02:30am 9.2 4.8 7.5 89 0.8 S 20 28 11 15 1019.4 1019.5 0.0
19/02:00am 9.1 4.7 7.4 89 0.8 S 20 28 11 15 1019.4 1019.5 0.0
19/01:30am 9.1 4.3 7.2 88 0.9 S 22 30 12 16 1019.4 1019.5 0.0
19/01:00am 9.4 5.0 7.3 87 1.0 S 20 28 11 15 1019.3 1019.4 0.0
19/12:30am 9.7 5.9 7.5 86 1.1 S 17 22 9 12 1019.4 1019.5 0.0
19/12:00am 9.9 5.1 7.5 85 1.1 S 22 30 12 16 1019.3 1019.4 0.0
 
Date/Time
EST
Temp
°C
App
Temp
°C
Dew
Point
Rel
Hum
%
Delta-T
°C
Wind Press
QNH
hPa
Press
MSL
hPa
Rain
since 9 am
mm
Dir
 
Spd
km/h
Gust
km/h
Spd
kts
Gust
kts
18/11:30pm 10.0 5.6 7.6 85 1.2 S 20 28 11 15 1019.3 1019.4 0.0
18/11:00pm 10.3 6.0 7.7 84 1.3 S 20 28 11 15 1019.1 1019.3 0.0
18/10:30pm 10.3 6.0 7.7 84 1.3 S 20 28 11 15 1018.9 1019.1 0.0
18/10:00pm 10.3 6.0 7.7 84 1.3 S 20 28 11 15 1018.9 1019.1 0.0
18/09:30pm 10.3 6.5 7.7 84 1.3 S 17 24 9 13 1018.7 1018.9 0.0
18/09:00pm 10.7 7.0 7.8 82 1.4 S 17 24 9 13 1018.6 1018.8 0.0
18/08:30pm 10.8 6.1 7.9 82 1.4 S 22 30 12 16 1018.3 1018.5 0.0
18/08:00pm 10.8 6.1 7.7 81 1.5 S 22 33 12 18 1018.1 1018.3 0.0
18/07:30pm 10.9 6.2 7.8 81 1.5 S 22 32 12 17 1017.9 1018.1 0.0
18/07:00pm 11.1 6.0 7.8 80 1.6 S 24 30 13 16 1017.6 1017.8 0.0
18/06:30pm 11.2 6.1 7.7 79 1.7 S 24 32 13 17 1017.3 1017.5 0.0
18/06:00pm 11.6 6.5 7.7 77 1.9 S 24 33 13 18 1017.1 1017.3 0.0
18/05:30pm 11.8 5.9 7.7 76 2.0 S 28 37 15 20 1016.8 1017.0 0.0
18/05:00pm 12.1 6.3 7.8 75 2.1 S 28 37 15 20 1016.5 1016.7 0.0
18/04:30pm 12.3 6.5 8.0 75 2.1 S 28 41 15 22 1016.2 1016.4 0.0
18/04:00pm 12.6 6.4 7.7 72 2.4 S 30 41 16 22 1016.0 1016.2 0.0
18/03:30pm 12.8 7.8 8.1 73 2.3 S 24 33 13 18 1015.9 1016.1 0.0
18/03:00pm 13.2 6.7 8.1 71 2.5 S 32 43 17 23 1015.9 1016.1 0.0
18/02:30pm 13.3 6.6 7.5 68 2.9 S 32 43 17 23 1015.8 1016.0 0.0
18/02:00pm 13.6 7.3 7.6 67 3.0 S 30 43 16 23 1015.9 1016.1 0.0
18/01:30pm 13.7 7.0 7.5 66 3.1 S 32 43 17 23 1015.9 1016.1 0.0
18/01:00pm 14.5 8.7 7.8 64 3.3 S 28 41 15 22 1016.0 1016.2 0.0
18/12:30pm 13.7 7.4 7.2 65 3.2 S 30 41 16 22 1016.1 1016.3 0.0
18/12:00pm 13.2 7.2 7.0 66 3.0 S 28 41 15 22 1016.3 1016.5 0.0
18/11:30am 12.7 7.3 7.8 72 2.4 S 26 33 14 18 1016.7 1016.9 0.0
18/11:00am 12.0 6.1 7.5 74 2.2 S 28 37 15 20 1016.8 1017.0 0.0
18/10:30am 11.9 5.9 7.0 72 2.4 S 28 35 15 19 1016.9 1017.1 0.0
18/10:00am 11.7 5.7 7.2 74 2.2 S 28 39 15 21 1016.9 1017.1 0.0
18/09:30am 11.3 5.4 7.4 77 1.9 S 28 43 15 23 1016.6 1016.8 0.0
18/09:00am 11.0 6.2 7.5 79 1.7 S 22 30 12 16 1016.6 1016.8 0.0
18/08:30am 10.9 5.3 7.0 77 1.9 S 26 35 14 19 1016.5 1016.7 0.0
18/08:00am 10.5 5.5 6.5 76 1.9 S 22 32 12 17 1016.2 1016.4 0.0
18/07:30am 10.3 5.7 6.3 76 1.9 S 20 28 11 15 1015.9 1016.1 0.0
18/07:00am 10.2 5.1 6.2 76 1.9 S 22 32 12 17 1015.6 1015.8 0.0
18/06:30am 10.2 5.2 6.4 77 1.8 S 22 32 12 17 1015.3 1015.5 0.0
18/06:00am 10.2 5.2 6.5 78 1.7 S 22 28 12 15 1014.9 1015.1 0.0
18/05:30am 10.1 5.6 6.8 80 1.6 S 20 33 11 18 1014.8 1015.0 0.0
18/05:00am 10.4 4.3 6.5 77 1.8 S 28 33 15 18 1014.6 1014.8 0.0
18/04:30am 10.2 5.6 6.5 78 1.7 S 20 28 11 15 1014.4 1014.6 0.0
18/04:00am 10.2 5.6 6.5 78 1.7 S 20 30 11 16 1014.2 1014.4 0.0
18/03:30am 10.2 5.2 6.5 78 1.7 S 22 32 12 17 1014.2 1014.4 0.0
18/03:00am 10.3 5.3 6.5 77 1.8 S 22 32 12 17 1014.3 1014.5 0.0
18/02:30am 10.3 5.3 6.5 77 1.8 S 22 28 12 15 1014.6 1014.8 0.0
18/02:00am 10.4 5.8 6.5 77 1.8 S 20 26 11 14 1014.7 1014.9 0.0
18/01:30am 10.1 5.5 6.6 79 1.6 S 20 28 11 15 1014.9 1015.1 0.0
18/01:00am 9.9 5.3 6.4 79 1.6 S 20 26 11 14 1014.9 1015.1 0.0
18/12:30am 9.9 5.3 6.4 79 1.6 S 20 28 11 15 1014.7 1014.9 0.0
18/12:00am 9.8 5.2 6.5 80 1.5 S 20 32 11 17 1014.7 1014.9 0.0
 
Date/Time
EST
Temp
°C
App
Temp
°C
Dew
Point
Rel
Hum
%
Delta-T
°C
Wind Press
QNH
hPa
Press
MSL
hPa
Rain
since 9 am
mm
Dir
 
Spd
km/h
Gust
km/h
Spd
kts
Gust
kts
17/11:30pm 9.9 4.9 6.6 80 1.6 S 22 28 12 15 1014.9 1015.1 0.0
17/11:00pm 10.2 4.9 6.7 79 1.7 S 24 32 13 17 1014.9 1015.1 0.0
17/10:30pm 10.6 4.9 6.7 77 1.8 S 26 32 14 17 1014.8 1015.0 0.0
17/10:00pm 10.8 5.5 6.7 76 1.9 S 24 32 13 17 1014.9 1015.1 0.0
17/09:30pm 10.7 6.2 6.8 77 1.9 S 20 28 11 15 1014.9 1015.1 0.0
17/09:00pm 10.9 5.6 6.6 75 2.0 S 24 33 13 18 1014.9 1015.1 0.0
17/08:30pm 11.2 5.9 6.9 75 2.1 S 24 30 13 16 1014.7 1014.9 0.0
17/08:00pm 11.4 6.9 7.1 75 2.1 S 20 32 11 17 1014.5 1014.7 0.0
17/07:30pm 11.7 6.5 7.2 74 2.2 S 24 32 13 17 1014.1 1014.3 0.0
17/07:00pm 12.0 7.2 7.3 73 2.3 S 22 28 12 15 1013.8 1014.0 0.0
17/06:30pm 12.2 6.6 7.3 72 2.4 S 26 32 14 17 1013.6 1013.8 0.0
17/06:00pm 12.6 7.5 7.5 71 2.5 S 24 33 13 18 1013.3 1013.5 0.0
17/05:30pm 13.0 8.4 8.1 72 2.4 S 22 35 12 19 1012.9 1013.0 0.0
17/05:00pm 14.2 9.9 7.7 65 3.2 S 20 32 11 17 1012.6 1012.7 0.0

Other Formats:

Comma delimited format used in spreadsheet applications
http://www.bom.gov.au/fwo/IDV60801/IDV60801.94875.axf

JavaScript Object Notation format (JSON) in row-major order
http://www.bom.gov.au/fwo/IDV60801/IDV60801.94875.json